sensor_id;sensor_type;location;lat;lon;timestamp;pressure;altitude;pressure_sealevel;temperature;humidity
16793;BME280;8513;42.662;23.350;2022-08-03T00:01:15;94952.63;;;21.56;47.08
16793;BME280;8513;42.662;23.350;2022-08-03T00:03:41;94949.56;;;21.53;47.25
16793;BME280;8513;42.662;23.350;2022-08-03T00:06:07;94956.94;;;21.57;47.41
16793;BME280;8513;42.662;23.350;2022-08-03T00:08:33;94952.31;;;21.65;47.08
16793;BME280;8513;42.662;23.350;2022-08-03T00:10:58;94950.75;;;21.57;47.82
16793;BME280;8513;42.662;23.350;2022-08-03T00:13:24;94952.63;;;21.56;47.45
16793;BME280;8513;42.662;23.350;2022-08-03T00:15:50;94944.16;;;21.59;47.41
16793;BME280;8513;42.662;23.350;2022-08-03T00:18:15;94948.31;;;21.55;47.76
16793;BME280;8513;42.662;23.350;2022-08-03T00:20:41;94950.47;;;21.47;47.95
16793;BME280;8513;42.662;23.350;2022-08-03T00:23:06;94956.25;;;21.44;48.17
16793;BME280;8513;42.662;23.350;2022-08-03T00:25:33;94942.44;;;21.47;48.35
16793;BME280;8513;42.662;23.350;2022-08-03T00:27:59;94954.16;;;21.46;48.96
16793;BME280;8513;42.662;23.350;2022-08-03T00:30:25;94946.31;;;21.26;49.27
16793;BME280;8513;42.662;23.350;2022-08-03T00:32:51;94944.94;;;21.17;49.07
16793;BME280;8513;42.662;23.350;2022-08-03T00:35:16;94954.22;;;21.14;48.97
16793;BME280;8513;42.662;23.350;2022-08-03T00:37:42;94955.81;;;21.22;48.88
16793;BME280;8513;42.662;23.350;2022-08-03T00:40:12;94958.47;;;21.22;49.01
16793;BME280;8513;42.662;23.350;2022-08-03T00:45:27;94948.81;;;21.21;48.80
16793;BME280;8513;42.662;23.350;2022-08-03T00:47:54;94949.84;;;21.20;48.84
16793;BME280;8513;42.662;23.350;2022-08-03T00:50:21;94947.97;;;21.02;49.12
16793;BME280;8513;42.662;23.350;2022-08-03T00:52:47;94950.22;;;20.98;48.43
16793;BME280;8513;42.662;23.350;2022-08-03T00:55:13;94947.41;;;20.93;48.71
16793;BME280;8513;42.662;23.350;2022-08-03T00:57:39;94943.69;;;20.94;48.51
16793;BME280;8513;42.662;23.350;2022-08-03T01:00:06;94949.03;;;20.94;48.74
16793;BME280;8513;42.662;23.350;2022-08-03T01:02:32;94939.28;;;20.81;48.90
16793;BME280;8513;42.662;23.350;2022-08-03T01:04:58;94936.56;;;20.88;48.64
16793;BME280;8513;42.662;23.350;2022-08-03T01:10:23;94939.53;;;20.98;48.18
16793;BME280;8513;42.662;23.350;2022-08-03T01:13:07;94946.53;;;20.99;48.27
16793;BME280;8513;42.662;23.350;2022-08-03T01:15:45;94930.16;;;20.89;49.13
16793;BME280;8513;42.662;23.350;2022-08-03T01:18:17;94939.41;;;20.93;49.90
16793;BME280;8513;42.662;23.350;2022-08-03T01:20:47;94927.00;;;20.74;50.71
16793;BME280;8513;42.662;23.350;2022-08-03T01:29:18;94939.16;;;20.69;50.65
16793;BME280;8513;42.662;23.350;2022-08-03T01:31:40;94927.97;;;20.54;51.59
16793;BME280;8513;42.662;23.350;2022-08-03T01:34:09;94937.69;;;20.74;51.47
16793;BME280;8513;42.662;23.350;2022-08-03T01:36:39;94934.56;;;20.77;52.01
16793;BME280;8513;42.662;23.350;2022-08-03T01:39:07;94940.97;;;20.76;52.41
16793;BME280;8513;42.662;23.350;2022-08-03T01:41:57;94947.81;;;20.65;52.96
16793;BME280;8513;42.662;23.350;2022-08-03T01:44:25;94947.00;;;20.64;53.12
16793;BME280;8513;42.662;23.350;2022-08-03T01:46:57;94946.44;;;20.49;53.49
16793;BME280;8513;42.662;23.350;2022-08-03T01:49:24;94947.25;;;19.46;56.14
16793;BME280;8513;42.662;23.350;2022-08-03T01:51:51;94945.91;;;19.89;55.54
16793;BME280;8513;42.662;23.350;2022-08-03T01:54:17;94943.38;;;20.07;55.28
16793;BME280;8513;42.662;23.350;2022-08-03T01:56:45;94938.47;;;20.04;55.47
16793;BME280;8513;42.662;23.350;2022-08-03T01:59:14;94942.53;;;20.13;55.09
16793;BME280;8513;42.662;23.350;2022-08-03T02:01:42;94946.28;;;19.99;55.35
16793;BME280;8513;42.662;23.350;2022-08-03T02:04:09;94945.09;;;19.95;55.17
16793;BME280;8513;42.662;23.350;2022-08-03T02:06:37;94949.31;;;20.09;55.13
16793;BME280;8513;42.662;23.350;2022-08-03T02:09:05;94946.97;;;20.33;54.14
16793;BME280;8513;42.662;23.350;2022-08-03T02:11:31;94954.78;;;20.34;53.61
16793;BME280;8513;42.662;23.350;2022-08-03T02:14:00;94946.97;;;20.33;53.55
16793;BME280;8513;42.662;23.350;2022-08-03T02:16:30;94945.41;;;20.18;54.02
16793;BME280;8513;42.662;23.350;2022-08-03T02:18:57;94939.75;;;19.95;54.27
16793;BME280;8513;42.662;23.350;2022-08-03T02:21:27;94941.25;;;19.77;55.53
16793;BME280;8513;42.662;23.350;2022-08-03T02:23:54;94936.66;;;19.91;55.27
16793;BME280;8513;42.662;23.350;2022-08-03T02:26:20;94942.94;;;20.17;54.09
16793;BME280;8513;42.662;23.350;2022-08-03T02:28:51;94944.59;;;20.11;53.92
16793;BME280;8513;42.662;23.350;2022-08-03T02:31:22;94931.88;;;20.07;53.74
16793;BME280;8513;42.662;23.350;2022-08-03T02:33:51;94933.38;;;19.96;53.84
16793;BME280;8513;42.662;23.350;2022-08-03T02:36:24;94927.41;;;19.94;53.58
16793;BME280;8513;42.662;23.350;2022-08-03T02:38:53;94939.34;;;19.91;53.52
16793;BME280;8513;42.662;23.350;2022-08-03T02:41:23;94941.44;;;19.82;54.29
16793;BME280;8513;42.662;23.350;2022-08-03T02:43:51;94946.38;;;19.79;54.63
16793;BME280;8513;42.662;23.350;2022-08-03T02:46:19;94938.19;;;19.67;55.18
16793;BME280;8513;42.662;23.350;2022-08-03T02:48:47;94932.28;;;19.45;55.92
16793;BME280;8513;42.662;23.350;2022-08-03T02:51:15;94940.84;;;19.60;55.58
16793;BME280;8513;42.662;23.350;2022-08-03T02:53:44;94942.28;;;19.70;55.27
16793;BME280;8513;42.662;23.350;2022-08-03T02:56:10;94941.66;;;19.61;55.59
16793;BME280;8513;42.662;23.350;2022-08-03T02:58:38;94934.94;;;19.45;56.42
16793;BME280;8513;42.662;23.350;2022-08-03T03:01:05;94943.56;;;19.47;56.66
16793;BME280;8513;42.662;23.350;2022-08-03T03:03:32;94939.03;;;19.54;56.10
16793;BME280;8513;42.662;23.350;2022-08-03T03:05:59;94943.13;;;19.50;56.26
16793;BME280;8513;42.662;23.350;2022-08-03T03:08:26;94951.31;;;19.55;55.95
16793;BME280;8513;42.662;23.350;2022-08-03T03:10:54;94952.97;;;19.63;55.62
16793;BME280;8513;42.662;23.350;2022-08-03T03:13:21;94956.06;;;19.47;56.44
16793;BME280;8513;42.662;23.350;2022-08-03T03:15:47;94956.06;;;19.47;56.28
16793;BME280;8513;42.662;23.350;2022-08-03T03:18:14;94962.44;;;19.32;56.60
16793;BME280;8513;42.662;23.350;2022-08-03T03:20:41;94962.25;;;19.41;56.37
16793;BME280;8513;42.662;23.350;2022-08-03T03:23:07;94969.41;;;19.40;56.37
16793;BME280;8513;42.662;23.350;2022-08-03T03:25:34;94965.28;;;19.51;55.08
16793;BME280;8513;42.662;23.350;2022-08-03T03:28:00;94973.72;;;19.54;54.84
16793;BME280;8513;42.662;23.350;2022-08-03T03:30:28;94968.19;;;19.49;54.89
16793;BME280;8513;42.662;23.350;2022-08-03T03:32:54;94978.41;;;19.59;53.85
16793;BME280;8513;42.662;23.350;2022-08-03T03:35:21;94976.38;;;19.48;54.12
16793;BME280;8513;42.662;23.350;2022-08-03T03:37:47;94975.13;;;19.50;53.54
16793;BME280;8513;42.662;23.350;2022-08-03T03:40:13;94977.19;;;19.48;53.13
16793;BME280;8513;42.662;23.350;2022-08-03T03:42:38;94976.16;;;19.56;52.94
16793;BME280;8513;42.662;23.350;2022-08-03T03:45:08;94976.56;;;19.53;52.78
16793;BME280;8513;42.662;23.350;2022-08-03T03:47:34;94976.56;;;19.66;52.94
16793;BME280;8513;42.662;23.350;2022-08-03T03:50:01;94979.84;;;19.55;53.45
16793;BME280;8513;42.662;23.350;2022-08-03T03:52:26;94975.97;;;19.71;53.48
16793;BME280;8513;42.662;23.350;2022-08-03T03:54:52;94985.34;;;19.87;53.63
16793;BME280;8513;42.662;23.350;2022-08-03T03:57:17;94982.72;;;19.67;54.42
16793;BME280;8513;42.662;23.350;2022-08-03T03:59:43;94984.56;;;19.59;54.98
16793;BME280;8513;42.662;23.350;2022-08-03T04:02:09;94993.59;;;19.45;55.87
16793;BME280;8513;42.662;23.350;2022-08-03T04:04:36;94984.34;;;19.61;55.72
16793;BME280;8513;42.662;23.350;2022-08-03T04:07:22;94990.91;;;19.72;55.19
16793;BME280;8513;42.662;23.350;2022-08-03T04:10:18;94983.34;;;19.69;55.07
16793;BME280;8513;42.662;23.350;2022-08-03T04:13:08;94984.31;;;19.88;54.89
16793;BME280;8513;42.662;23.350;2022-08-03T04:15:40;94981.63;;;19.88;54.61
16793;BME280;8513;42.662;23.350;2022-08-03T04:18:08;94977.13;;;19.95;53.92
16793;BME280;8513;42.662;23.350;2022-08-03T04:20:37;94969.72;;;19.90;54.05
16793;BME280;8513;42.662;23.350;2022-08-03T04:23:04;94979.38;;;19.91;54.36
16793;BME280;8513;42.662;23.350;2022-08-03T04:25:32;94981.84;;;19.93;53.93
16793;BME280;8513;42.662;23.350;2022-08-03T04:28:03;94983.66;;;19.99;53.63
16793;BME280;8513;42.662;23.350;2022-08-03T04:30:30;94990.66;;;20.00;53.88
16793;BME280;8513;42.662;23.350;2022-08-03T04:32:57;94990.78;;;20.12;53.67
16793;BME280;8513;42.662;23.350;2022-08-03T04:35:28;94989.38;;;20.09;53.78
16793;BME280;8513;42.662;23.350;2022-08-03T04:37:56;94984.66;;;20.04;53.98
16793;BME280;8513;42.662;23.350;2022-08-03T04:40:36;94995.72;;;20.15;53.83
16793;BME280;8513;42.662;23.350;2022-08-03T04:43:04;94993.22;;;20.26;53.57
16793;BME280;8513;42.662;23.350;2022-08-03T04:45:31;94995.91;;;20.20;54.87
16793;BME280;8513;42.662;23.350;2022-08-03T04:47:58;94996.78;;;20.00;55.22
16793;BME280;8513;42.662;23.350;2022-08-03T04:50:24;94999.47;;;20.00;54.81
16793;BME280;8513;42.662;23.350;2022-08-03T04:52:52;94997.03;;;19.92;55.53
16793;BME280;8513;42.662;23.350;2022-08-03T04:55:44;95000.66;;;20.11;55.09
16793;BME280;8513;42.662;23.350;2022-08-03T04:58:09;95005.06;;;20.37;54.60
16793;BME280;8513;42.662;23.350;2022-08-03T05:00:35;94998.56;;;20.26;54.54
16793;BME280;8513;42.662;23.350;2022-08-03T05:03:00;95007.81;;;20.17;54.52
16793;BME280;8513;42.662;23.350;2022-08-03T05:05:26;95010.00;;;20.34;53.74
16793;BME280;8513;42.662;23.350;2022-08-03T05:07:51;95009.94;;;20.54;53.26
16793;BME280;8513;42.662;23.350;2022-08-03T05:10:17;95011.38;;;20.56;53.18
16793;BME280;8513;42.662;23.350;2022-08-03T05:12:46;95019.50;;;20.75;52.71
16793;BME280;8513;42.662;23.350;2022-08-03T05:15:12;95020.75;;;20.72;52.46
16793;BME280;8513;42.662;23.350;2022-08-03T05:17:38;95025.22;;;20.78;52.23
16793;BME280;8513;42.662;23.350;2022-08-03T05:20:04;95024.00;;;20.74;51.85
16793;BME280;8513;42.662;23.350;2022-08-03T05:22:30;95032.69;;;20.69;52.09
16793;BME280;8513;42.662;23.350;2022-08-03T05:24:55;95023.97;;;20.81;51.54
16793;BME280;8513;42.662;23.350;2022-08-03T05:27:21;95029.06;;;20.89;51.79
16793;BME280;8513;42.662;23.350;2022-08-03T05:29:48;95035.44;;;20.88;51.42
16793;BME280;8513;42.662;23.350;2022-08-03T05:32:14;95040.91;;;21.00;51.11
16793;BME280;8513;42.662;23.350;2022-08-03T05:34:41;95026.31;;;21.02;50.49
16793;BME280;8513;42.662;23.350;2022-08-03T05:37:07;95041.72;;;20.68;51.68
16793;BME280;8513;42.662;23.350;2022-08-03T05:39:33;95040.13;;;20.92;50.44
16793;BME280;8513;42.662;23.350;2022-08-03T05:41:59;95041.97;;;20.99;50.29
16793;BME280;8513;42.662;23.350;2022-08-03T05:44:24;95038.53;;;21.17;49.90
16793;BME280;8513;42.662;23.350;2022-08-03T05:46:50;95045.47;;;21.24;49.99
16793;BME280;8513;42.662;23.350;2022-08-03T05:49:16;95043.50;;;21.13;49.90
16793;BME280;8513;42.662;23.350;2022-08-03T05:51:42;95047.59;;;21.15;49.68
16793;BME280;8513;42.662;23.350;2022-08-03T05:54:08;95042.19;;;21.22;49.70
16793;BME280;8513;42.662;23.350;2022-08-03T05:59:55;95048.84;;;21.13;50.22
16793;BME280;8513;42.662;23.350;2022-08-03T06:02:21;95051.72;;;21.43;48.92
16793;BME280;8513;42.662;23.350;2022-08-03T06:04:46;95052.34;;;21.45;48.87
16793;BME280;8513;42.662;23.350;2022-08-03T06:07:12;95047.47;;;21.61;48.83
16793;BME280;8513;42.662;23.350;2022-08-03T06:09:37;95049.53;;;21.58;49.03
16793;BME280;8513;42.662;23.350;2022-08-03T06:12:03;95053.28;;;21.57;49.22
16793;BME280;8513;42.662;23.350;2022-08-03T06:14:28;95053.56;;;21.68;48.71
16793;BME280;8513;42.662;23.350;2022-08-03T06:16:54;95040.91;;;21.82;48.48
16793;BME280;8513;42.662;23.350;2022-08-03T06:19:19;95032.34;;;22.10;48.61
16793;BME280;8513;42.662;23.350;2022-08-03T06:21:44;95050.66;;;22.13;48.52
16793;BME280;8513;42.662;23.350;2022-08-03T06:24:10;95050.13;;;22.04;48.95
16793;BME280;8513;42.662;23.350;2022-08-03T06:26:35;95056.75;;;22.01;48.96
16793;BME280;8513;42.662;23.350;2022-08-03T06:29:01;95045.03;;;22.02;49.52
16793;BME280;8513;42.662;23.350;2022-08-03T06:31:27;95039.50;;;22.16;49.09
16793;BME280;8513;42.662;23.350;2022-08-03T06:33:54;95035.84;;;22.10;48.71
16793;BME280;8513;42.662;23.350;2022-08-03T06:36:20;95047.13;;;22.19;48.82
16793;BME280;8513;42.662;23.350;2022-08-03T06:38:45;95045.78;;;22.28;48.74
16793;BME280;8513;42.662;23.350;2022-08-03T06:41:10;95037.91;;;22.33;48.21
16793;BME280;8513;42.662;23.350;2022-08-03T06:43:36;95045.16;;;22.44;47.76
16793;BME280;8513;42.662;23.350;2022-08-03T06:46:02;95042.63;;;22.50;46.88
16793;BME280;8513;42.662;23.350;2022-08-03T06:48:30;95044.25;;;22.51;47.26
16793;BME280;8513;42.662;23.350;2022-08-03T06:50:55;95046.69;;;22.71;46.20
16793;BME280;8513;42.662;23.350;2022-08-03T06:53:21;95042.81;;;22.66;46.76
16793;BME280;8513;42.662;23.350;2022-08-03T06:55:46;95041.84;;;22.79;46.50
16793;BME280;8513;42.662;23.350;2022-08-03T06:58:12;95036.00;;;22.82;46.12
16793;BME280;8513;42.662;23.350;2022-08-03T07:00:37;95036.00;;;22.82;46.28
16793;BME280;8513;42.662;23.350;2022-08-03T07:03:03;95034.19;;;22.83;46.32
16793;BME280;8513;42.662;23.350;2022-08-03T07:05:28;95033.00;;;22.90;46.51
16793;BME280;8513;42.662;23.350;2022-08-03T07:07:55;95038.31;;;22.97;46.60
16793;BME280;8513;42.662;23.350;2022-08-03T07:10:22;95033.38;;;23.13;46.04
16793;BME280;8513;42.662;23.350;2022-08-03T07:12:47;95037.06;;;23.00;46.01
16793;BME280;8513;42.662;23.350;2022-08-03T07:15:13;95032.84;;;23.04;46.00
16793;BME280;8513;42.662;23.350;2022-08-03T07:17:38;95043.03;;;23.14;46.39
16793;BME280;8513;42.662;23.350;2022-08-03T07:20:06;95046.81;;;23.36;45.13
16793;BME280;8513;42.662;23.350;2022-08-03T07:22:32;95038.75;;;23.36;45.44
16793;BME280;8513;42.662;23.350;2022-08-03T07:24:58;95028.88;;;23.48;45.10
16793;BME280;8513;42.662;23.350;2022-08-03T07:27:24;95037.50;;;23.50;45.14
16793;BME280;8513;42.662;23.350;2022-08-03T07:29:51;95048.13;;;23.57;45.09
16793;BME280;8513;42.662;23.350;2022-08-03T07:32:17;95045.81;;;23.61;45.56
16793;BME280;8513;42.662;23.350;2022-08-03T07:34:42;95047.34;;;23.68;44.48
16793;BME280;8513;42.662;23.350;2022-08-03T07:37:07;95041.66;;;23.76;43.04
16793;BME280;8513;42.662;23.350;2022-08-03T07:39:33;95056.22;;;23.81;43.08
16793;BME280;8513;42.662;23.350;2022-08-03T07:41:59;95049.91;;;23.87;42.63
16793;BME280;8513;42.662;23.350;2022-08-03T07:44:24;95042.81;;;23.92;42.50
16793;BME280;8513;42.662;23.350;2022-08-03T07:46:50;95043.75;;;23.98;43.06
16793;BME280;8513;42.662;23.350;2022-08-03T07:49:15;95048.88;;;23.99;42.72
16793;BME280;8513;42.662;23.350;2022-08-03T07:51:41;95048.50;;;24.08;42.19
16793;BME280;8513;42.662;23.350;2022-08-03T07:54:07;95039.84;;;24.06;42.36
16793;BME280;8513;42.662;23.350;2022-08-03T07:56:35;95050.50;;;24.12;42.60
16793;BME280;8513;42.662;23.350;2022-08-03T07:59:00;95042.06;;;24.20;41.44
16793;BME280;8513;42.662;23.350;2022-08-03T08:01:27;95045.69;;;24.26;41.66
16793;BME280;8513;42.662;23.350;2022-08-03T08:03:53;95048.16;;;24.28;41.96
16793;BME280;8513;42.662;23.350;2022-08-03T08:06:19;95045.31;;;24.34;40.89
16793;BME280;8513;42.662;23.350;2022-08-03T08:08:45;95047.28;;;24.39;40.76
16793;BME280;8513;42.662;23.350;2022-08-03T08:11:10;95049.84;;;24.57;40.79
16793;BME280;8513;42.662;23.350;2022-08-03T08:13:36;95046.00;;;24.53;40.25
16793;BME280;8513;42.662;23.350;2022-08-03T08:16:04;95052.66;;;24.51;40.67
16793;BME280;8513;42.662;23.350;2022-08-03T08:18:29;95050.88;;;24.56;40.73
16793;BME280;8513;42.662;23.350;2022-08-03T08:20:56;95052.50;;;24.69;40.48
16793;BME280;8513;42.662;23.350;2022-08-03T08:23:21;95045.06;;;24.88;40.00
16793;BME280;8513;42.662;23.350;2022-08-03T08:25:50;95045.44;;;24.80;40.30
16793;BME280;8513;42.662;23.350;2022-08-03T08:28:17;95054.78;;;24.89;39.53
16793;BME280;8513;42.662;23.350;2022-08-03T08:30:43;95047.63;;;24.95;39.57
16793;BME280;8513;42.662;23.350;2022-08-03T08:33:09;95049.41;;;24.89;38.68
16793;BME280;8513;42.662;23.350;2022-08-03T08:35:34;95042.47;;;24.93;39.02
16793;BME280;8513;42.662;23.350;2022-08-03T08:38:01;95048.66;;;25.22;38.67
16793;BME280;8513;42.662;23.350;2022-08-03T08:40:26;95043.28;;;25.22;38.29
16793;BME280;8513;42.662;23.350;2022-08-03T08:42:52;95053.72;;;25.19;38.34
16793;BME280;8513;42.662;23.350;2022-08-03T08:45:18;95043.78;;;25.36;37.81
16793;BME280;8513;42.662;23.350;2022-08-03T08:47:46;95050.31;;;25.40;37.86
16793;BME280;8513;42.662;23.350;2022-08-03T08:50:12;95051.47;;;25.44;37.55
16793;BME280;8513;42.662;23.350;2022-08-03T08:52:42;95051.38;;;25.39;37.07
16793;BME280;8513;42.662;23.350;2022-08-03T08:55:09;95035.31;;;25.44;36.96
16793;BME280;8513;42.662;23.350;2022-08-03T08:57:44;95034.34;;;25.50;36.98
16793;BME280;8513;42.662;23.350;2022-08-03T09:00:11;95030.19;;;25.60;37.68
16793;BME280;8513;42.662;23.350;2022-08-03T09:02:40;95035.53;;;25.77;37.09
16793;BME280;8513;42.662;23.350;2022-08-03T09:05:12;95031.06;;;25.82;35.99
16793;BME280;8513;42.662;23.350;2022-08-03T09:07:39;95034.16;;;25.57;36.78
16793;BME280;8513;42.662;23.350;2022-08-03T09:10:06;95032.28;;;25.58;36.24
16793;BME280;8513;42.662;23.350;2022-08-03T09:12:41;95032.28;;;25.58;36.99
16793;BME280;8513;42.662;23.350;2022-08-03T09:17:40;95026.50;;;25.83;35.08
16793;BME280;8513;42.662;23.350;2022-08-03T09:20:06;95031.72;;;25.89;35.62
16793;BME280;8513;42.662;23.350;2022-08-03T09:22:33;95033.66;;;26.11;36.23
16793;BME280;8513;42.662;23.350;2022-08-03T09:25:04;95018.50;;;26.27;35.23
16793;BME280;8513;42.662;23.350;2022-08-03T09:27:44;95024.91;;;26.43;33.80
16793;BME280;8513;42.662;23.350;2022-08-03T09:30:16;95023.75;;;26.55;34.32
16793;BME280;8513;42.662;23.350;2022-08-03T09:32:41;95024.47;;;26.51;33.56
16793;BME280;8513;42.662;23.350;2022-08-03T09:35:09;95015.38;;;26.35;33.85
16793;BME280;8513;42.662;23.350;2022-08-03T09:37:35;95015.19;;;26.64;33.27
16793;BME280;8513;42.662;23.350;2022-08-03T09:40:01;95012.94;;;26.77;33.54
16793;BME280;8513;42.662;23.350;2022-08-03T09:42:27;95018.19;;;26.89;33.16
16793;BME280;8513;42.662;23.350;2022-08-03T09:44:52;95024.47;;;26.95;32.60
16793;BME280;8513;42.662;23.350;2022-08-03T09:47:32;95023.25;;;26.86;33.51
16793;BME280;8513;42.662;23.350;2022-08-03T09:50:06;95018.50;;;26.93;33.73
16793;BME280;8513;42.662;23.350;2022-08-03T09:52:41;95015.06;;;27.24;33.60
16793;BME280;8513;42.662;23.350;2022-08-03T09:55:12;95012.03;;;27.48;32.86
16793;BME280;8513;42.662;23.350;2022-08-03T09:57:39;95009.53;;;27.79;31.59
16793;BME280;8513;42.662;23.350;2022-08-03T10:00:14;95005.94;;;28.05;31.33
16793;BME280;8513;42.662;23.350;2022-08-03T10:02:41;95006.38;;;28.40;31.47
16793;BME280;8513;42.662;23.350;2022-08-03T10:05:08;95015.16;;;28.62;31.06
16793;BME280;8513;42.662;23.350;2022-08-03T10:07:48;95012.44;;;28.57;30.77
16793;BME280;8513;42.662;23.350;2022-08-03T10:10:15;95000.31;;;28.70;30.26
16793;BME280;8513;42.662;23.350;2022-08-03T10:12:42;94997.34;;;28.76;29.82
16793;BME280;8513;42.662;23.350;2022-08-03T10:15:09;95000.34;;;28.85;30.22
16793;BME280;8513;42.662;23.350;2022-08-03T10:17:35;94997.56;;;28.59;30.11
16793;BME280;8513;42.662;23.350;2022-08-03T10:20:03;95007.31;;;28.61;31.19
16793;BME280;8513;42.662;23.350;2022-08-03T10:22:32;95006.81;;;28.74;29.51
16793;BME280;8513;42.662;23.350;2022-08-03T10:25:17;95003.63;;;29.02;29.08
16793;BME280;8513;42.662;23.350;2022-08-03T10:27:46;94996.09;;;29.20;29.13
16793;BME280;8513;42.662;23.350;2022-08-03T10:30:15;94997.22;;;29.60;28.87
16793;BME280;8513;42.662;23.350;2022-08-03T10:32:55;94992.31;;;29.77;28.77
16793;BME280;8513;42.662;23.350;2022-08-03T10:35:22;94991.25;;;29.88;29.10
16793;BME280;8513;42.662;23.350;2022-08-03T10:38:01;94995.03;;;29.93;28.81
16793;BME280;8513;42.662;23.350;2022-08-03T10:40:30;94992.25;;;30.18;29.10
16793;BME280;8513;42.662;23.350;2022-08-03T10:43:03;94978.22;;;29.85;28.74
16793;BME280;8513;42.662;23.350;2022-08-03T10:45:33;94983.69;;;29.65;28.81
16793;BME280;8513;42.662;23.350;2022-08-03T10:48:00;94985.84;;;29.78;28.56
16793;BME280;8513;42.662;23.350;2022-08-03T10:50:27;94986.31;;;30.06;28.41
16793;BME280;8513;42.662;23.350;2022-08-03T10:52:59;94971.59;;;30.38;28.07
16793;BME280;8513;42.662;23.350;2022-08-03T11:01:05;94974.19;;;31.13;27.68
16793;BME280;8513;42.662;23.350;2022-08-03T11:03:31;94974.34;;;30.87;26.82
16793;BME280;8513;42.662;23.350;2022-08-03T11:06:18;94972.13;;;30.99;27.43
16793;BME280;8513;42.662;23.350;2022-08-03T11:08:45;94966.72;;;30.94;27.68
16793;BME280;8513;42.662;23.350;2022-08-03T11:16:21;94966.72;;;30.94;26.45
16793;BME280;8513;42.662;23.350;2022-08-03T11:35:19;94938.94;;;31.08;25.61
16793;BME280;8513;42.662;23.350;2022-08-03T11:38:05;94938.72;;;30.99;25.34
16793;BME280;8513;42.662;23.350;2022-08-03T11:46:07;94940.13;;;31.65;26.05
16793;BME280;8513;42.662;23.350;2022-08-03T11:48:33;94931.16;;;31.94;25.08
16793;BME280;8513;42.662;23.350;2022-08-03T11:51:03;94936.69;;;32.07;24.41
16793;BME280;8513;42.662;23.350;2022-08-03T11:53:30;94930.75;;;32.29;24.81
16793;BME280;8513;42.662;23.350;2022-08-03T11:56:01;94933.22;;;32.69;24.88
16793;BME280;8513;42.662;23.350;2022-08-03T11:58:28;94930.69;;;32.97;24.07
16793;BME280;8513;42.662;23.350;2022-08-03T12:01:04;94936.56;;;33.04;24.49
16793;BME280;8513;42.662;23.350;2022-08-03T12:03:33;94929.56;;;32.79;23.86
16793;BME280;8513;42.662;23.350;2022-08-03T12:05:59;94926.03;;;32.59;24.97
16793;BME280;8513;42.662;23.350;2022-08-03T12:08:31;94924.00;;;32.70;24.91
16793;BME280;8513;42.662;23.350;2022-08-03T12:10:59;94923.06;;;32.32;25.08
16793;BME280;8513;42.662;23.350;2022-08-03T12:13:25;94920.25;;;31.94;24.83
16793;BME280;8513;42.662;23.350;2022-08-03T12:15:57;94918.41;;;32.37;24.88
16793;BME280;8513;42.662;23.350;2022-08-03T12:18:23;94919.81;;;32.11;23.72
16793;BME280;8513;42.662;23.350;2022-08-03T12:20:50;94919.03;;;32.05;24.52
16793;BME280;8513;42.662;23.350;2022-08-03T12:23:17;94918.41;;;32.37;24.09
16793;BME280;8513;42.662;23.350;2022-08-03T12:25:43;94913.97;;;32.22;23.07
16793;BME280;8513;42.662;23.350;2022-08-03T12:28:18;94922.69;;;32.43;22.83
16793;BME280;8513;42.662;23.350;2022-08-03T12:30:46;94922.97;;;33.04;23.00
16793;BME280;8513;42.662;23.350;2022-08-03T12:33:26;94913.75;;;33.51;21.69
16793;BME280;8513;42.662;23.350;2022-08-03T12:36:02;94912.91;;;33.70;20.56
16793;BME280;8513;42.662;23.350;2022-08-03T12:38:29;94905.66;;;33.79;20.98
16793;BME280;8513;42.662;23.350;2022-08-03T12:41:15;94920.09;;;33.79;22.03
16793;BME280;8513;42.662;23.350;2022-08-03T12:43:51;94919.50;;;33.50;22.57
16793;BME280;8513;42.662;23.350;2022-08-03T12:46:18;94907.69;;;33.22;22.52
16793;BME280;8513;42.662;23.350;2022-08-03T12:51:30;94909.06;;;33.05;22.34
16793;BME280;8513;42.662;23.350;2022-08-03T12:53:57;94921.16;;;33.65;22.55
16793;BME280;8513;42.662;23.350;2022-08-03T12:56:23;94910.72;;;33.53;23.37
16793;BME280;8513;42.662;23.350;2022-08-03T12:58:48;94906.16;;;33.48;22.58
16793;BME280;8513;42.662;23.350;2022-08-03T13:01:15;94903.22;;;33.77;23.50
16793;BME280;8513;42.662;23.350;2022-08-03T13:03:42;94902.22;;;34.01;21.77
16793;BME280;8513;42.662;23.350;2022-08-03T13:06:16;94899.38;;;34.61;21.53
16793;BME280;8513;42.662;23.350;2022-08-03T13:08:42;94894.78;;;34.84;21.28
16793;BME280;8513;42.662;23.350;2022-08-03T13:13:44;94886.31;;;35.31;19.92
16793;BME280;8513;42.662;23.350;2022-08-03T13:16:10;94886.09;;;35.72;21.59
16793;BME280;8513;42.662;23.350;2022-08-03T13:18:35;94884.38;;;35.85;20.63
16793;BME280;8513;42.662;23.350;2022-08-03T13:21:01;94891.84;;;35.40;22.21
16793;BME280;8513;42.662;23.350;2022-08-03T13:23:26;94888.06;;;35.81;20.39
16793;BME280;8513;42.662;23.350;2022-08-03T13:25:52;94894.81;;;35.74;20.32
16793;BME280;8513;42.662;23.350;2022-08-03T13:28:18;94898.53;;;35.56;19.69
16793;BME280;8513;42.662;23.350;2022-08-03T13:30:43;94892.69;;;35.04;20.56
16793;BME280;8513;42.662;23.350;2022-08-03T13:33:08;94898.28;;;34.62;21.13
16793;BME280;8513;42.662;23.350;2022-08-03T13:35:34;94887.72;;;34.19;21.60
16793;BME280;8513;42.662;23.350;2022-08-03T13:37:59;94895.38;;;33.90;22.17
16793;BME280;8513;42.662;23.350;2022-08-03T13:40:25;94896.03;;;33.35;23.41
16793;BME280;8513;42.662;23.350;2022-08-03T13:42:50;94893.00;;;32.23;25.58
16793;BME280;8513;42.662;23.350;2022-08-03T13:45:15;94899.06;;;31.67;26.53
16793;BME280;8513;42.662;23.350;2022-08-03T13:47:41;94895.47;;;32.00;26.18
16793;BME280;8513;42.662;23.350;2022-08-03T13:50:06;94902.25;;;31.74;26.28
16793;BME280;8513;42.662;23.350;2022-08-03T13:52:33;94902.34;;;31.63;26.59
16793;BME280;8513;42.662;23.350;2022-08-03T13:55:00;94902.22;;;31.50;26.23
16793;BME280;8513;42.662;23.350;2022-08-03T13:57:27;94903.00;;;30.82;27.58
16793;BME280;8513;42.662;23.350;2022-08-03T13:59:52;94895.38;;;30.84;27.70